LWSK/SKP METAR and TAF weather

Enter ICAO airport designator
Station Type Date Time Source
LWSK METAR 2020/09/20 10:30 UTC NOAA

LWSK 201030Z 00000KT CAVOK 24/12 Q1017 NOSIG


Station Type Date Time Source
LWSK Decoded METAR 2020/09/20 10:30 UTC NOAA

Skopje-Petrovec, Macedonia, The Republic of (LWSK) 41-58N 021-39E 239M
Sep 20, 2020 - 06:30 AM EDT / 2020.09.20 1030 UTC
Wind: Calm:0
Visibility: greater than 7 mile(s):0
Temperature: 75 F (24 C)
Dew Point: 53 F (12 C)
Relative Humidity: 46%
Pressure (altimeter): 30.03 in. Hg (1017 hPa)
ob: LWSK 201030Z 00000KT CAVOK 24/12 Q1017 NOSIG
cycle: 10

Station Type Date Time Source
LWSK TAF 2020/09/20 09:37 UTC NOAA

TAF LWSK 200830Z 2009/2109 VRB02KT CAVOK

Example: see airport list